sensor_id;sensor_type;location;lat;lon;timestamp;pressure;altitude;pressure_sealevel;temperature;humidity
59987;BME280;46181;51.498;5.392;2024-01-10T00:01:47;102981.3;;;0.49;39.03906
59987;BME280;46181;51.498;5.392;2024-01-10T00:06:18;102983.1;;;0.47;39.08105
59987;BME280;46181;51.498;5.392;2024-01-10T00:10:47;102977.9;;;0.46;39.12402
59987;BME280;46181;51.498;5.392;2024-01-10T00:15:18;102971.1;;;0.4;39.21875
59987;BME280;46181;51.498;5.392;2024-01-10T00:19:47;102968.7;;;0.37;39.33691
59987;BME280;46181;51.498;5.392;2024-01-10T00:24:17;102963.4;;;0.33;39.35547
59987;BME280;46181;51.498;5.392;2024-01-10T00:28:47;102958.4;;;0.31;39.41992
59987;BME280;46181;51.498;5.392;2024-01-10T00:33:17;102958.2;;;0.26;39.4707
59987;BME280;46181;51.498;5.392;2024-01-10T00:37:48;102954.6;;;0.21;39.55469
59987;BME280;46181;51.498;5.392;2024-01-10T00:42:17;102959.4;;;0.18;39.63965
59987;BME280;46181;51.498;5.392;2024-01-10T00:46:47;102962;;;0.15;39.7041
59987;BME280;46181;51.498;5.392;2024-01-10T00:51:18;102952.7;;;0.12;39.7998
59987;BME280;46181;51.498;5.392;2024-01-10T00:55:47;102955;;;0.07;39.78418
59987;BME280;46181;51.498;5.392;2024-01-10T01:00:19;102947.4;;;0.02;39.94531
59987;BME280;46181;51.498;5.392;2024-01-10T01:04:47;102958.7;;;0.05;39.99219
59987;BME280;46181;51.498;5.392;2024-01-10T01:09:17;102950.9;;;0.01;40.04395
59987;BME280;46181;51.498;5.392;2024-01-10T01:13:48;102947.7;;;0.01;40.07715
59987;BME280;46181;51.498;5.392;2024-01-10T01:18:18;102941;;;-0.02;40.18457
59987;BME280;46181;51.498;5.392;2024-01-10T01:22:48;102945.6;;;0;40.20801
59987;BME280;46181;51.498;5.392;2024-01-10T01:27:17;102948.9;;;-0.02;40.26172
59987;BME280;46181;51.498;5.392;2024-01-10T01:31:47;102941.8;;;-0.06;40.30176
59987;BME280;46181;51.498;5.392;2024-01-10T01:36:18;102935.9;;;-0.05;40.3584
59987;BME280;46181;51.498;5.392;2024-01-10T01:40:48;102935.3;;;-0.08;40.39941
59987;BME280;46181;51.498;5.392;2024-01-10T01:45:18;102935.3;;;-0.08;40.42188
59987;BME280;46181;51.498;5.392;2024-01-10T01:49:47;102929.4;;;-0.08;40.44434
59987;BME280;46181;51.498;5.392;2024-01-10T01:54:18;102932.5;;;-0.1;40.46387
59987;BME280;46181;51.498;5.392;2024-01-10T01:58:48;102930;;;-0.11;40.51855
59987;BME280;46181;51.498;5.392;2024-01-10T02:03:18;102930.2;;;-0.13;40.58301
59987;BME280;46181;51.498;5.392;2024-01-10T02:07:47;102926.9;;;-0.14;40.64746
59987;BME280;46181;51.498;5.392;2024-01-10T02:12:18;102924.6;;;-0.17;40.66699
59987;BME280;46181;51.498;5.392;2024-01-10T02:16:47;102924.2;;;-0.19;40.77441
59987;BME280;46181;51.498;5.392;2024-01-10T02:21:17;102920.7;;;-0.2;40.85156
59987;BME280;46181;51.498;5.392;2024-01-10T02:25:48;102915.3;;;-0.21;40.90527
59987;BME280;46181;51.498;5.392;2024-01-10T02:30:18;102920.8;;;-0.2;40.93945
59987;BME280;46181;51.498;5.392;2024-01-10T02:34:47;102921.3;;;-0.19;40.99512
59987;BME280;46181;51.498;5.392;2024-01-10T02:39:17;102918.5;;;-0.18;41.05176
59987;BME280;46181;51.498;5.392;2024-01-10T02:43:48;102915.8;;;-0.17;41.05273
59987;BME280;46181;51.498;5.392;2024-01-10T02:48:18;102903.2;;;-0.2;41.03906
59987;BME280;46181;51.498;5.392;2024-01-10T02:52:47;102905;;;-0.19;41.13867
59987;BME280;46181;51.498;5.392;2024-01-10T02:57:17;102906.4;;;-0.21;41.22461
59987;BME280;46181;51.498;5.392;2024-01-10T03:01:47;102897.2;;;-0.2;41.25977
59987;BME280;46181;51.498;5.392;2024-01-10T03:06:17;102905.8;;;-0.22;41.33398
59987;BME280;46181;51.498;5.392;2024-01-10T03:10:47;102904.4;;;-0.21;41.36816
59987;BME280;46181;51.498;5.392;2024-01-10T03:15:18;102897.4;;;-0.23;41.42188
59987;BME280;46181;51.498;5.392;2024-01-10T03:19:47;102887.9;;;-0.25;41.43066
59987;BME280;46181;51.498;5.392;2024-01-10T03:24:18;102880.4;;;-0.27;41.48438
59987;BME280;46181;51.498;5.392;2024-01-10T03:28:47;102878.4;;;-0.29;41.53906
59987;BME280;46181;51.498;5.392;2024-01-10T03:33:17;102884.5;;;-0.32;41.63379
59987;BME280;46181;51.498;5.392;2024-01-10T03:37:47;102879.3;;;-0.32;41.65527
59987;BME280;46181;51.498;5.392;2024-01-10T03:42:18;102875.4;;;-0.36;41.71875
59987;BME280;46181;51.498;5.392;2024-01-10T03:46:47;102870.2;;;-0.36;41.77344
59987;BME280;46181;51.498;5.392;2024-01-10T03:51:18;102867.6;;;-0.38;41.88184
59987;BME280;46181;51.498;5.392;2024-01-10T03:55:47;102856.1;;;-0.4;41.88965
59987;BME280;46181;51.498;5.392;2024-01-10T04:00:18;102853.8;;;-0.42;41.91113
59987;BME280;46181;51.498;5.392;2024-01-10T04:04:49;102857.1;;;-0.42;42.01074
59987;BME280;46181;51.498;5.392;2024-01-10T04:09:17;102860.5;;;-0.42;42.02051
59987;BME280;46181;51.498;5.392;2024-01-10T04:13:48;102857;;;-0.45;42.0625
59987;BME280;46181;51.498;5.392;2024-01-10T04:18:18;102846.7;;;-0.49;42.10254
59987;BME280;46181;51.498;5.392;2024-01-10T04:22:47;102849.1;;;-0.49;42.17871
59987;BME280;46181;51.498;5.392;2024-01-10T04:27:17;102851.1;;;-0.5;42.2334
59987;BME280;46181;51.498;5.392;2024-01-10T04:31:47;102853.4;;;-0.5;42.26563
59987;BME280;46181;51.498;5.392;2024-01-10T04:36:18;102848.4;;;-0.5;42.29883
59987;BME280;46181;51.498;5.392;2024-01-10T04:40:48;102846.8;;;-0.52;42.27539
59987;BME280;46181;51.498;5.392;2024-01-10T04:45:18;102848.8;;;-0.55;42.36133
59987;BME280;46181;51.498;5.392;2024-01-10T04:49:47;102846.7;;;-0.55;42.25098
59987;BME280;46181;51.498;5.392;2024-01-10T04:54:18;102848;;;-0.57;42.45898
59987;BME280;46181;51.498;5.392;2024-01-10T04:58:47;102837.7;;;-0.59;42.47852
59987;BME280;46181;51.498;5.392;2024-01-10T05:03:17;102842.6;;;-0.6;42.53125
59987;BME280;46181;51.498;5.392;2024-01-10T05:07:48;102829.9;;;-0.63;42.62793
59987;BME280;46181;51.498;5.392;2024-01-10T05:12:18;102841.7;;;-0.65;42.64844
59987;BME280;46181;51.498;5.392;2024-01-10T05:16:48;102835.9;;;-0.63;42.67188
59987;BME280;46181;51.498;5.392;2024-01-10T05:21:18;102841.2;;;-0.65;42.70313
59987;BME280;46181;51.498;5.392;2024-01-10T05:25:48;102839.1;;;-0.63;42.75977
59987;BME280;46181;51.498;5.392;2024-01-10T05:30:19;102843.1;;;-0.66;42.80078
59987;BME280;46181;51.498;5.392;2024-01-10T05:34:47;102839.6;;;-0.69;42.83105
59987;BME280;46181;51.498;5.392;2024-01-10T05:39:17;102840.8;;;-0.72;42.92773
59987;BME280;46181;51.498;5.392;2024-01-10T05:43:48;102840.6;;;-0.74;43.00293
59987;BME280;46181;51.498;5.392;2024-01-10T05:48:18;102841.9;;;-0.75;43.06641
59987;BME280;46181;51.498;5.392;2024-01-10T05:52:48;102845.7;;;-0.75;43.06738
59987;BME280;46181;51.498;5.392;2024-01-10T05:57:17;102840.6;;;-0.78;43.08594
59987;BME280;46181;51.498;5.392;2024-01-10T06:01:47;102839.7;;;-0.79;43.11816
59987;BME280;46181;51.498;5.392;2024-01-10T06:06:18;102837.6;;;-0.84;43.14648
59987;BME280;46181;51.498;5.392;2024-01-10T06:10:48;102831.9;;;-0.87;43.20996
59987;BME280;46181;51.498;5.392;2024-01-10T06:15:19;102834;;;-0.9;43.26172
59987;BME280;46181;51.498;5.392;2024-01-10T06:19:48;102829.6;;;-0.96;43.41016
59987;BME280;46181;51.498;5.392;2024-01-10T06:24:18;102823.4;;;-0.96;43.36621
59987;BME280;46181;51.498;5.392;2024-01-10T06:28:48;102829.3;;;-0.98;43.46191
59987;BME280;46181;51.498;5.392;2024-01-10T06:33:18;102826.8;;;-0.99;43.50488
59987;BME280;46181;51.498;5.392;2024-01-10T06:37:48;102834.1;;;-1.02;43.5459
59987;BME280;46181;51.498;5.392;2024-01-10T06:42:18;102843;;;-1.03;43.62207
59987;BME280;46181;51.498;5.392;2024-01-10T06:46:48;102832.3;;;-1.06;43.70703
59987;BME280;46181;51.498;5.392;2024-01-10T06:51:22;102828.4;;;-1.09;43.73828
59987;BME280;46181;51.498;5.392;2024-01-10T06:55:48;102831;;;-1.07;43.73926
59987;BME280;46181;51.498;5.392;2024-01-10T07:00:19;102834.8;;;-1.07;43.7832
59987;BME280;46181;51.498;5.392;2024-01-10T07:04:49;102833.6;;;-1.11;43.8125
59987;BME280;46181;51.498;5.392;2024-01-10T07:09:18;102841.5;;;-1.12;43.98633
59987;BME280;46181;51.498;5.392;2024-01-10T07:13:48;102842.8;;;-1.13;44.08496
59987;BME280;46181;51.498;5.392;2024-01-10T07:18:18;102839.5;;;-1.13;44.10742
59987;BME280;46181;51.498;5.392;2024-01-10T07:22:48;102834.5;;;-1.14;44.13965
59987;BME280;46181;51.498;5.392;2024-01-10T07:27:18;102827.4;;;-1.14;44.15039
59987;BME280;46181;51.498;5.392;2024-01-10T07:31:48;102825.7;;;-1.13;44.18457
59987;BME280;46181;51.498;5.392;2024-01-10T07:36:18;102832.7;;;-1.15;44.3916
59987;BME280;46181;51.498;5.392;2024-01-10T07:40:48;102825.3;;;-1.14;44.36914
59987;BME280;46181;51.498;5.392;2024-01-10T07:45:18;102825.4;;;-1.13;44.4043
59987;BME280;46181;51.498;5.392;2024-01-10T07:49:48;102819;;;-1.12;44.43848
59987;BME280;46181;51.498;5.392;2024-01-10T07:54:18;102816.7;;;-1.11;44.42773
59987;BME280;46181;51.498;5.392;2024-01-10T07:58:48;102824.8;;;-1.09;44.48535
59987;BME280;46181;51.498;5.392;2024-01-10T08:03:18;102829.5;;;-1.07;44.54199
59987;BME280;46181;51.498;5.392;2024-01-10T08:07:48;102839.9;;;-1.02;44.55859
59987;BME280;46181;51.498;5.392;2024-01-10T08:12:18;102833.2;;;-0.98;44.55078
59987;BME280;46181;51.498;5.392;2024-01-10T08:16:48;102841.5;;;-0.96;44.58691
59987;BME280;46181;51.498;5.392;2024-01-10T08:21:18;102845.7;;;-0.88;44.60547
59987;BME280;46181;51.498;5.392;2024-01-10T08:25:48;102847.9;;;-0.8;44.63574
59987;BME280;46181;51.498;5.392;2024-01-10T08:30:19;102847.7;;;-0.73;44.57715
59987;BME280;46181;51.498;5.392;2024-01-10T08:34:48;102852.4;;;-0.64;44.50977
59987;BME280;46181;51.498;5.392;2024-01-10T08:39:18;102846.3;;;-0.54;44.50977
59987;BME280;46181;51.498;5.392;2024-01-10T08:43:48;102843.6;;;-0.44;44.47559
59987;BME280;46181;51.498;5.392;2024-01-10T08:48:18;102850;;;-0.32;44.43262
59987;BME280;46181;51.498;5.392;2024-01-10T08:52:48;102850.4;;;-0.18;44.37109
59987;BME280;46181;51.498;5.392;2024-01-10T08:57:18;102861;;;-0.06;44.30566
59987;BME280;46181;51.498;5.392;2024-01-10T09:01:48;102857.7;;;0.04;44.18457
59987;BME280;46181;51.498;5.392;2024-01-10T09:06:18;102855.5;;;0.13;44.08398
59987;BME280;46181;51.498;5.392;2024-01-10T09:10:48;102855.8;;;0.21;43.92676
59987;BME280;46181;51.498;5.392;2024-01-10T09:15:19;102855.3;;;0.34;43.78418
59987;BME280;46181;51.498;5.392;2024-01-10T09:19:48;102853;;;0.4;43.60352
59987;BME280;46181;51.498;5.392;2024-01-10T09:24:18;102859;;;0.52;43.66016
59987;BME280;46181;51.498;5.392;2024-01-10T09:28:48;102865;;;0.67;43.4209
59987;BME280;46181;51.498;5.392;2024-01-10T09:33:18;102864.9;;;0.7;43.34766
59987;BME280;46181;51.498;5.392;2024-01-10T09:37:48;102859.6;;;0.81;43.29199
59987;BME280;46181;51.498;5.392;2024-01-10T09:42:18;102869.3;;;0.9;43.22461
59987;BME280;46181;51.498;5.392;2024-01-10T09:46:50;102859.4;;;1;43.20215
59987;BME280;46181;51.498;5.392;2024-01-10T09:51:18;102870.9;;;1.14;43.09277
59987;BME280;46181;51.498;5.392;2024-01-10T09:55:48;102870;;;1.24;43.01465
59987;BME280;46181;51.498;5.392;2024-01-10T10:00:20;102873;;;1.33;42.91504
59987;BME280;46181;51.498;5.392;2024-01-10T10:04:53;102876.7;;;1.41;42.78906
59987;BME280;46181;51.498;5.392;2024-01-10T10:09:19;102875;;;1.53;42.62402
59987;BME280;46181;51.498;5.392;2024-01-10T10:13:48;102875.4;;;1.61;42.45508
59987;BME280;46181;51.498;5.392;2024-01-10T10:18:22;102872.8;;;1.64;42.32422
59987;BME280;46181;51.498;5.392;2024-01-10T10:22:57;102870.8;;;1.7;41.85449
59987;BME280;46181;51.498;5.392;2024-01-10T10:27:20;102865.7;;;1.72;41.77832
59987;BME280;46181;51.498;5.392;2024-01-10T10:31:50;102861.6;;;1.78;41.7627
59987;BME280;46181;51.498;5.392;2024-01-10T10:36:18;102862.8;;;1.88;41.52832
59987;BME280;46181;51.498;5.392;2024-01-10T10:40:48;102848.4;;;1.96;41.53613
59987;BME280;46181;51.498;5.392;2024-01-10T10:45:21;102837.5;;;2;41.39551
59987;BME280;46181;51.498;5.392;2024-01-10T10:49:52;102845.1;;;2.15;41.39941
59987;BME280;46181;51.498;5.392;2024-01-10T10:54:18;102848.4;;;2.26;41.35449
59987;BME280;46181;51.498;5.392;2024-01-10T10:58:48;102851.8;;;2.32;41.01563
59987;BME280;46181;51.498;5.392;2024-01-10T11:03:19;102843.5;;;2.35;41.0752
59987;BME280;46181;51.498;5.392;2024-01-10T11:07:48;102843.5;;;2.42;40.89258
59987;BME280;46181;51.498;5.392;2024-01-10T11:12:26;102841.7;;;2.46;40.94141
59987;BME280;46181;51.498;5.392;2024-01-10T11:17:01;102838.6;;;2.57;40.88477
59987;BME280;46181;51.498;5.392;2024-01-10T11:21:29;102833.8;;;2.65;40.74902
59987;BME280;46181;51.498;5.392;2024-01-10T11:25:48;102828.4;;;2.75;40.70215
59987;BME280;46181;51.498;5.392;2024-01-10T11:30:22;102821.2;;;2.82;40.6875
59987;BME280;46181;51.498;5.392;2024-01-10T11:35:03;102812.1;;;2.85;40.69043
59987;BME280;46181;51.498;5.392;2024-01-10T11:39:18;102813.2;;;2.99;40.55762
59987;BME280;46181;51.498;5.392;2024-01-10T11:43:48;102812.7;;;3.06;40.30957
59987;BME280;46181;51.498;5.392;2024-01-10T11:48:20;102810.7;;;3.11;40.16895
59987;BME280;46181;51.498;5.392;2024-01-10T11:52:48;102800.6;;;3.18;40.08789
59987;BME280;46181;51.498;5.392;2024-01-10T11:57:25;102805;;;3.24;40.06934
59987;BME280;46181;51.498;5.392;2024-01-10T12:01:49;102799;;;3.3;39.73145
59987;BME280;46181;51.498;5.392;2024-01-10T12:06:18;102803;;;3.32;39.74414
59987;BME280;46181;51.498;5.392;2024-01-10T12:10:48;102798.7;;;3.41;39.68555
59987;BME280;46181;51.498;5.392;2024-01-10T12:15:18;102790.7;;;3.47;39.67969
59987;BME280;46181;51.498;5.392;2024-01-10T12:19:48;102790.9;;;3.55;39.40918
59987;BME280;46181;51.498;5.392;2024-01-10T12:24:18;102785.7;;;3.6;39.32422
59987;BME280;46181;51.498;5.392;2024-01-10T12:28:58;102783.9;;;3.66;39.18457
59987;BME280;46181;51.498;5.392;2024-01-10T12:33:18;102786;;;3.72;39.00098
59987;BME280;46181;51.498;5.392;2024-01-10T12:37:56;102785;;;3.76;39.00586
59987;BME280;46181;51.498;5.392;2024-01-10T12:42:19;102788.2;;;3.8;38.73047
59987;BME280;46181;51.498;5.392;2024-01-10T12:46:58;102783.9;;;3.75;38.76953
59987;BME280;46181;51.498;5.392;2024-01-10T12:51:18;102789;;;3.86;38.63477
59987;BME280;46181;51.498;5.392;2024-01-10T12:55:48;102781;;;3.88;38.52539
59987;BME280;46181;51.498;5.392;2024-01-10T13:00:19;102779.9;;;3.9;38.46094
59987;BME280;46181;51.498;5.392;2024-01-10T13:04:48;102784.1;;;3.93;38.40723
59987;BME280;46181;51.498;5.392;2024-01-10T13:09:18;102786.9;;;3.96;38.37695
59987;BME280;46181;51.498;5.392;2024-01-10T13:13:48;102783.7;;;4.02;38.31543
59987;BME280;46181;51.498;5.392;2024-01-10T13:18:18;102777.9;;;4.06;38.25195
59987;BME280;46181;51.498;5.392;2024-01-10T13:22:48;102774.7;;;4.09;38.24316
59987;BME280;46181;51.498;5.392;2024-01-10T13:27:18;102774.9;;;4.13;37.89063
59987;BME280;46181;51.498;5.392;2024-01-10T13:31:48;102771.8;;;4.18;37.86133
59987;BME280;46181;51.498;5.392;2024-01-10T13:36:18;102770.5;;;4.2;37.7959
59987;BME280;46181;51.498;5.392;2024-01-10T13:40:48;102776.9;;;4.21;37.80859
59987;BME280;46181;51.498;5.392;2024-01-10T13:45:19;102784.6;;;4.23;37.55273
59987;BME280;46181;51.498;5.392;2024-01-10T13:49:48;102779.3;;;4.24;37.44238
59987;BME280;46181;51.498;5.392;2024-01-10T13:54:18;102774;;;4.25;37.46582
59987;BME280;46181;51.498;5.392;2024-01-10T13:58:48;102783.6;;;4.26;37.44434
59987;BME280;46181;51.498;5.392;2024-01-10T14:03:18;102785.6;;;4.27;37.40039
59987;BME280;46181;51.498;5.392;2024-01-10T14:07:48;102790;;;4.25;37.30957
59987;BME280;46181;51.498;5.392;2024-01-10T14:12:18;102789.8;;;4.27;37.34473
59987;BME280;46181;51.498;5.392;2024-01-10T14:16:48;102796;;;4.29;37.26855
59987;BME280;46181;51.498;5.392;2024-01-10T14:21:18;102797.3;;;4.28;37.15625
59987;BME280;46181;51.498;5.392;2024-01-10T14:25:48;102799.2;;;4.27;37.25586
59987;BME280;46181;51.498;5.392;2024-01-10T14:30:19;102788.7;;;4.26;37.16504
59987;BME280;46181;51.498;5.392;2024-01-10T14:34:48;102786.8;;;4.26;37.05371
59987;BME280;46181;51.498;5.392;2024-01-10T14:39:18;102789.9;;;4.25;37.0752
59987;BME280;46181;51.498;5.392;2024-01-10T14:43:48;102788.8;;;4.22;37.09375
59987;BME280;46181;51.498;5.392;2024-01-10T14:48:18;102786.3;;;4.23;37.12891
59987;BME280;46181;51.498;5.392;2024-01-10T14:52:48;102781;;;4.24;37.11914
59987;BME280;46181;51.498;5.392;2024-01-10T14:57:18;102781.5;;;4.24;37.14063
59987;BME280;46181;51.498;5.392;2024-01-10T15:01:52;102786.4;;;4.23;37.07324
59987;BME280;46181;51.498;5.392;2024-01-10T15:06:18;102788.2;;;4.25;37.08691
59987;BME280;46181;51.498;5.392;2024-01-10T15:10:48;102796.4;;;4.24;37.09668
59987;BME280;46181;51.498;5.392;2024-01-10T15:15:19;102793.9;;;4.23;37.15137
59987;BME280;46181;51.498;5.392;2024-01-10T15:19:48;102798;;;4.21;37.18359
59987;BME280;46181;51.498;5.392;2024-01-10T15:24:18;102809;;;4.17;37.15723
59987;BME280;46181;51.498;5.392;2024-01-10T15:28:48;102804.1;;;4.16;37.16699
59987;BME280;46181;51.498;5.392;2024-01-10T15:33:18;102798.5;;;4.14;37.07617
59987;BME280;46181;51.498;5.392;2024-01-10T15:37:48;102804.9;;;4.1;37.20703
59987;BME280;46181;51.498;5.392;2024-01-10T15:42:18;102812.8;;;4.09;37.23926
59987;BME280;46181;51.498;5.392;2024-01-10T15:46:48;102813.7;;;4.06;37.27051
59987;BME280;46181;51.498;5.392;2024-01-10T15:51:18;102810.1;;;4.02;37.37793
59987;BME280;46181;51.498;5.392;2024-01-10T15:55:48;102810.2;;;4;37.37695
59987;BME280;46181;51.498;5.392;2024-01-10T16:00:20;102811.2;;;3.99;37.35449
59987;BME280;46181;51.498;5.392;2024-01-10T16:04:48;102813.4;;;3.99;37.44336
59987;BME280;46181;51.498;5.392;2024-01-10T16:09:18;102817.1;;;3.92;37.48047
59987;BME280;46181;51.498;5.392;2024-01-10T16:13:48;102817.8;;;3.84;37.58496
59987;BME280;46181;51.498;5.392;2024-01-10T16:18:18;102809.3;;;3.76;37.70117
59987;BME280;46181;51.498;5.392;2024-01-10T16:22:48;102820.5;;;3.71;37.80859
59987;BME280;46181;51.498;5.392;2024-01-10T16:27:18;102821;;;3.66;37.91504
59987;BME280;46181;51.498;5.392;2024-01-10T16:31:48;102826.2;;;3.6;37.9873
59987;BME280;46181;51.498;5.392;2024-01-10T16:36:18;102827.8;;;3.54;38.07129
59987;BME280;46181;51.498;5.392;2024-01-10T16:40:48;102837.2;;;3.49;38.16797
59987;BME280;46181;51.498;5.392;2024-01-10T16:45:18;102829.1;;;3.42;38.25098
59987;BME280;46181;51.498;5.392;2024-01-10T16:49:48;102835.9;;;3.39;38.32617
59987;BME280;46181;51.498;5.392;2024-01-10T16:54:18;102845.2;;;3.36;38.38965
59987;BME280;46181;51.498;5.392;2024-01-10T16:58:48;102845.2;;;3.31;38.51855
59987;BME280;46181;51.498;5.392;2024-01-10T17:03:18;102844.9;;;3.28;38.63965
59987;BME280;46181;51.498;5.392;2024-01-10T17:07:48;102850.8;;;3.25;38.68066
59987;BME280;46181;51.498;5.392;2024-01-10T17:12:18;102855.6;;;3.23;38.70117
59987;BME280;46181;51.498;5.392;2024-01-10T17:16:48;102857;;;3.21;38.7666
59987;BME280;46181;51.498;5.392;2024-01-10T17:21:18;102856.5;;;3.21;38.82227
59987;BME280;46181;51.498;5.392;2024-01-10T17:25:48;102861.1;;;3.19;38.90918
59987;BME280;46181;51.498;5.392;2024-01-10T17:30:20;102868.6;;;3.18;38.96289
59987;BME280;46181;51.498;5.392;2024-01-10T17:34:48;102875.3;;;3.2;38.95508
59987;BME280;46181;51.498;5.392;2024-01-10T17:39:18;102879.9;;;3.22;39.0332
59987;BME280;46181;51.498;5.392;2024-01-10T17:43:48;102877.1;;;3.21;38.94434
59987;BME280;46181;51.498;5.392;2024-01-10T17:48:18;102887.5;;;3.16;38.90625
59987;BME280;46181;51.498;5.392;2024-01-10T17:52:48;102890.1;;;3.11;38.95703
59987;BME280;46181;51.498;5.392;2024-01-10T17:57:18;102898.3;;;3.05;39.05078
59987;BME280;46181;51.498;5.392;2024-01-10T18:01:48;102904.6;;;2.97;39.13379
59987;BME280;46181;51.498;5.392;2024-01-10T18:06:18;102899.4;;;2.91;39.23926
59987;BME280;46181;51.498;5.392;2024-01-10T18:10:48;102907.1;;;2.89;39.32715
59987;BME280;46181;51.498;5.392;2024-01-10T18:15:18;102908.2;;;2.84;39.37793
59987;BME280;46181;51.498;5.392;2024-01-10T18:19:48;102912.2;;;2.82;39.36523
59987;BME280;46181;51.498;5.392;2024-01-10T18:24:18;102918.6;;;2.78;39.44922
59987;BME280;46181;51.498;5.392;2024-01-10T18:28:48;102921.1;;;2.75;39.50195
59987;BME280;46181;51.498;5.392;2024-01-10T18:33:18;102920.4;;;2.69;39.5752
59987;BME280;46181;51.498;5.392;2024-01-10T18:37:48;102923.3;;;2.64;39.64844
59987;BME280;46181;51.498;5.392;2024-01-10T18:42:18;102918.8;;;2.57;39.7627
59987;BME280;46181;51.498;5.392;2024-01-10T18:46:48;102926.3;;;2.54;39.84961
59987;BME280;46181;51.498;5.392;2024-01-10T18:51:19;102931;;;2.54;39.86035
59987;BME280;46181;51.498;5.392;2024-01-10T18:55:48;102936.9;;;2.46;40.05273
59987;BME280;46181;51.498;5.392;2024-01-10T19:00:19;102938.8;;;2.43;40.07227
59987;BME280;46181;51.498;5.392;2024-01-10T19:04:48;102939.3;;;2.38;40.14453
59987;BME280;46181;51.498;5.392;2024-01-10T19:09:18;102951.5;;;2.36;40.20996
59987;BME280;46181;51.498;5.392;2024-01-10T19:13:48;102953.9;;;2.3;40.32715
59987;BME280;46181;51.498;5.392;2024-01-10T19:18:18;102946;;;2.24;40.44238
59987;BME280;46181;51.498;5.392;2024-01-10T19:22:48;102945.4;;;2.17;40.51367
59987;BME280;46181;51.498;5.392;2024-01-10T19:27:18;102952;;;2.15;40.60156
59987;BME280;46181;51.498;5.392;2024-01-10T19:31:48;102953.4;;;2.13;40.64355
59987;BME280;46181;51.498;5.392;2024-01-10T19:36:19;102958.7;;;2.1;40.74023
59987;BME280;46181;51.498;5.392;2024-01-10T19:40:48;102951.9;;;2.07;40.80371
59987;BME280;46181;51.498;5.392;2024-01-10T19:45:18;102958;;;2;40.90918
59987;BME280;46181;51.498;5.392;2024-01-10T19:49:48;102961.2;;;1.99;40.97266
59987;BME280;46181;51.498;5.392;2024-01-10T19:54:18;102957.4;;;1.94;41.05762
59987;BME280;46181;51.498;5.392;2024-01-10T19:58:48;102961.5;;;1.93;41.13379
59987;BME280;46181;51.498;5.392;2024-01-10T20:03:18;102969.7;;;1.91;41.2207
59987;BME280;46181;51.498;5.392;2024-01-10T20:07:48;102970.9;;;1.9;41.25293
59987;BME280;46181;51.498;5.392;2024-01-10T20:12:18;102979.4;;;1.84;41.34668
59987;BME280;46181;51.498;5.392;2024-01-10T20:16:48;102981.7;;;1.8;41.43164
59987;BME280;46181;51.498;5.392;2024-01-10T20:21:18;102978.9;;;1.76;41.50586
59987;BME280;46181;51.498;5.392;2024-01-10T20:25:49;102981.5;;;1.69;41.57617
59987;BME280;46181;51.498;5.392;2024-01-10T20:30:19;102991.5;;;1.66;41.68359
59987;BME280;46181;51.498;5.392;2024-01-10T20:34:48;103002.6;;;1.6;41.7334
59987;BME280;46181;51.498;5.392;2024-01-10T20:39:18;103007.6;;;1.51;41.83594
59987;BME280;46181;51.498;5.392;2024-01-10T20:43:48;103006.7;;;1.46;41.94141
59987;BME280;46181;51.498;5.392;2024-01-10T20:48:18;103011.6;;;1.39;42.05566
59987;BME280;46181;51.498;5.392;2024-01-10T20:52:48;103015.6;;;1.34;42.19531
59987;BME280;46181;51.498;5.392;2024-01-10T20:57:18;103011.6;;;1.33;42.29492
59987;BME280;46181;51.498;5.392;2024-01-10T21:01:48;103012.9;;;1.29;42.36719
59987;BME280;46181;51.498;5.392;2024-01-10T21:06:18;103016.3;;;1.28;42.47754
59987;BME280;46181;51.498;5.392;2024-01-10T21:10:48;103012.9;;;1.28;42.54395
59987;BME280;46181;51.498;5.392;2024-01-10T21:15:18;103025.4;;;1.26;42.6084
59987;BME280;46181;51.498;5.392;2024-01-10T21:19:48;103025.1;;;1.24;42.67285
59987;BME280;46181;51.498;5.392;2024-01-10T21:24:18;103017.7;;;1.23;42.78223
59987;BME280;46181;51.498;5.392;2024-01-10T21:28:48;103021.8;;;1.23;42.82617
59987;BME280;46181;51.498;5.392;2024-01-10T21:33:18;103028;;;1.22;42.90332
59987;BME280;46181;51.498;5.392;2024-01-10T21:37:48;103033.3;;;1.2;42.98926
59987;BME280;46181;51.498;5.392;2024-01-10T21:42:18;103039.1;;;1.18;43.00879
59987;BME280;46181;51.498;5.392;2024-01-10T21:46:48;103043.8;;;1.16;43.10645
59987;BME280;46181;51.498;5.392;2024-01-10T21:51:18;103050.1;;;1.13;43.1709
59987;BME280;46181;51.498;5.392;2024-01-10T21:55:48;103050.3;;;1.13;43.27051
59987;BME280;46181;51.498;5.392;2024-01-10T22:00:20;103048.7;;;1.11;43.34473
59987;BME280;46181;51.498;5.392;2024-01-10T22:04:48;103055.9;;;1.11;43.38867
59987;BME280;46181;51.498;5.392;2024-01-10T22:09:18;103055.6;;;1.1;43.4668
59987;BME280;46181;51.498;5.392;2024-01-10T22:13:48;103063.8;;;1.1;43.54395
59987;BME280;46181;51.498;5.392;2024-01-10T22:18:19;103062.8;;;1.1;43.61035
59987;BME280;46181;51.498;5.392;2024-01-10T22:22:48;103064.5;;;1.1;43.66504
59987;BME280;46181;51.498;5.392;2024-01-10T22:27:18;103074.1;;;1.08;43.70703
59987;BME280;46181;51.498;5.392;2024-01-10T22:31:48;103076.5;;;1.05;43.7373
59987;BME280;46181;51.498;5.392;2024-01-10T22:36:18;103087;;;1.03;43.80078
59987;BME280;46181;51.498;5.392;2024-01-10T22:40:48;103092.2;;;0.99;43.89648
59987;BME280;46181;51.498;5.392;2024-01-10T22:45:18;103094.5;;;1;43.99707
59987;BME280;46181;51.498;5.392;2024-01-10T22:49:48;103096.9;;;0.98;44.02832
59987;BME280;46181;51.498;5.392;2024-01-10T22:54:20;103096;;;0.98;44.10547
59987;BME280;46181;51.498;5.392;2024-01-10T22:58:48;103093.3;;;0.98;44.12793
59987;BME280;46181;51.498;5.392;2024-01-10T23:03:18;103098.1;;;0.98;44.19434
59987;BME280;46181;51.498;5.392;2024-01-10T23:07:48;103101.9;;;0.94;44.24512
59987;BME280;46181;51.498;5.392;2024-01-10T23:12:18;103103.4;;;0.93;44.13281
59987;BME280;46181;51.498;5.392;2024-01-10T23:16:48;103098.1;;;0.9;44.33984